Terminal Aerodrome Forecast
Issued by NWS

Home | Current Version | Previous Version | Text Only | Print | Product List | Glossary On
Versions: 1 2 3 4 5 6 7 8 9 10 11 12
000
FTUS46 KHNX 070536
TAFBFL
TAF
KBFL 070536Z 0706/0806 33008KT P6SM FEW250
     FM072000 33010KT P6SM VCSH BKN060 PROB30 0722/0802 3SM TSRAGS
      BKN040CB=

USA.gov is the U.S. government's official web portal to all federal, state and local government web resources and services.